sensor_id;sensor_type;location;lat;lon;timestamp;pressure;altitude;pressure_sealevel;temperature;humidity
73651;BME280;61944;52.538;6.108;2022-10-16T05:03:34;101020.00;;;12.33;100.00
73651;BME280;61944;52.538;6.108;2022-10-16T05:06:00;101013.97;;;12.31;100.00
73651;BME280;61944;52.538;6.108;2022-10-16T05:08:25;101019.97;;;12.29;100.00
73651;BME280;61944;52.538;6.108;2022-10-16T05:10:51;101018.03;;;12.33;100.00
73651;BME280;61944;52.538;6.108;2022-10-16T05:13:16;101018.41;;;12.32;100.00
73651;BME280;61944;52.538;6.108;2022-10-16T05:15:41;101012.31;;;12.26;100.00
73651;BME280;61944;52.538;6.108;2022-10-16T05:18:08;101015.16;;;12.30;100.00
73651;BME280;61944;52.538;6.108;2022-10-16T05:20:33;101016.75;;;12.27;100.00
73651;BME280;61944;52.538;6.108;2022-10-16T05:22:59;101035.19;;;12.28;100.00
73651;BME280;61944;52.538;6.108;2022-10-16T05:25:24;101029.19;;;12.30;100.00
73651;BME280;61944;52.538;6.108;2022-10-16T05:27:50;101033.22;;;12.32;100.00
73651;BME280;61944;52.538;6.108;2022-10-16T05:30:16;101030.38;;;12.29;100.00
73651;BME280;61944;52.538;6.108;2022-10-16T05:32:46;101036.03;;;12.32;100.00
73651;BME280;61944;52.538;6.108;2022-10-16T05:35:11;101042.38;;;12.26;100.00
73651;BME280;61944;52.538;6.108;2022-10-16T05:37:37;101041.59;;;12.25;100.00
73651;BME280;61944;52.538;6.108;2022-10-16T05:40:02;101045.66;;;12.31;100.00
73651;BME280;61944;52.538;6.108;2022-10-16T05:42:29;101040.44;;;12.30;100.00
73651;BME280;61944;52.538;6.108;2022-10-16T05:44:55;101041.22;;;12.30;100.00
73651;BME280;61944;52.538;6.108;2022-10-16T05:47:20;101047.22;;;12.29;100.00
73651;BME280;61944;52.538;6.108;2022-10-16T05:49:46;101050.44;;;12.27;100.00
73651;BME280;61944;52.538;6.108;2022-10-16T05:52:11;101047.19;;;12.25;100.00
73651;BME280;61944;52.538;6.108;2022-10-16T05:54:36;101057.66;;;12.28;100.00
73651;BME280;61944;52.538;6.108;2022-10-16T05:57:02;101059.69;;;12.31;100.00
73651;BME280;61944;52.538;6.108;2022-10-16T05:59:27;101066.50;;;12.30;100.00
73651;BME280;61944;52.538;6.108;2022-10-16T06:01:52;101071.31;;;12.30;100.00
73651;BME280;61944;52.538;6.108;2022-10-16T06:04:18;101071.31;;;12.30;100.00
73651;BME280;61944;52.538;6.108;2022-10-16T06:06:43;101080.19;;;12.35;100.00
73651;BME280;61944;52.538;6.108;2022-10-16T06:09:09;101081.75;;;12.33;100.00
73651;BME280;61944;52.538;6.108;2022-10-16T06:11:36;101082.59;;;12.37;100.00
73651;BME280;61944;52.538;6.108;2022-10-16T06:14:02;101088.94;;;12.30;100.00
73651;BME280;61944;52.538;6.108;2022-10-16T06:16:31;101090.56;;;12.31;100.00
73651;BME280;61944;52.538;6.108;2022-10-16T06:18:57;101088.94;;;12.30;100.00
73651;BME280;61944;52.538;6.108;2022-10-16T06:21:24;101089.75;;;12.31;100.00
73651;BME280;61944;52.538;6.108;2022-10-16T06:23:50;101100.22;;;12.37;100.00
73651;BME280;61944;52.538;6.108;2022-10-16T06:26:19;101101.88;;;12.38;100.00
73651;BME280;61944;52.538;6.108;2022-10-16T06:28:45;101094.63;;;12.37;100.00
73651;BME280;61944;52.538;6.108;2022-10-16T06:31:11;101094.63;;;12.37;100.00
73651;BME280;61944;52.538;6.108;2022-10-16T06:33:37;101103.88;;;12.41;100.00
73651;BME280;61944;52.538;6.108;2022-10-16T06:36:06;101109.06;;;12.39;100.00
73651;BME280;61944;52.538;6.108;2022-10-16T06:38:32;101109.94;;;12.44;100.00
73651;BME280;61944;52.538;6.108;2022-10-16T06:40:58;101110.78;;;12.48;100.00
73651;BME280;61944;52.538;6.108;2022-10-16T06:43:24;101116.38;;;12.48;100.00
73651;BME280;61944;52.538;6.108;2022-10-16T06:45:56;101122.41;;;12.50;100.00
73651;BME280;61944;52.538;6.108;2022-10-16T06:48:23;101124.47;;;12.53;100.00
73651;BME280;61944;52.538;6.108;2022-10-16T06:51:06;101136.50;;;12.53;100.00
73651;BME280;61944;52.538;6.108;2022-10-16T06:53:35;101141.75;;;12.58;100.00
73651;BME280;61944;52.538;6.108;2022-10-16T06:56:12;101155.84;;;12.62;100.00
73651;BME280;61944;52.538;6.108;2022-10-16T06:58:38;101155.84;;;12.62;100.00
73651;BME280;61944;52.538;6.108;2022-10-16T07:01:04;101159.47;;;12.63;100.00
73651;BME280;61944;52.538;6.108;2022-10-16T07:03:30;101167.50;;;12.64;100.00
73651;BME280;61944;52.538;6.108;2022-10-16T07:05:55;101167.88;;;12.63;100.00
73651;BME280;61944;52.538;6.108;2022-10-16T07:08:21;101162.25;;;12.63;100.00
73651;BME280;61944;52.538;6.108;2022-10-16T07:10:46;101157.44;;;12.59;100.00
73651;BME280;61944;52.538;6.108;2022-10-16T07:13:12;101156.63;;;12.59;100.00
73651;BME280;61944;52.538;6.108;2022-10-16T07:15:41;101161.84;;;12.60;100.00
73651;BME280;61944;52.538;6.108;2022-10-16T07:18:06;101152.56;;;12.56;100.00
73651;BME280;61944;52.538;6.108;2022-10-16T07:20:32;101143.34;;;12.56;100.00
73651;BME280;61944;52.538;6.108;2022-10-16T07:22:57;101138.94;;;12.55;100.00
73651;BME280;61944;52.538;6.108;2022-10-16T07:25:22;101159.78;;;12.54;100.00
73651;BME280;61944;52.538;6.108;2022-10-16T07:27:48;101156.53;;;12.52;100.00
73651;BME280;61944;52.538;6.108;2022-10-16T07:30:13;101162.16;;;12.52;100.00
73651;BME280;61944;52.538;6.108;2022-10-16T07:32:39;101171.00;;;12.54;100.00
73651;BME280;61944;52.538;6.108;2022-10-16T07:35:04;101190.72;;;12.57;100.00
73651;BME280;61944;52.538;6.108;2022-10-16T07:37:30;101199.13;;;12.57;100.00
73651;BME280;61944;52.538;6.108;2022-10-16T07:39:55;101198.34;;;12.60;100.00
73651;BME280;61944;52.538;6.108;2022-10-16T07:42:20;101202.84;;;12.65;100.00
73651;BME280;61944;52.538;6.108;2022-10-16T07:44:46;101208.88;;;12.67;100.00
73651;BME280;61944;52.538;6.108;2022-10-16T07:47:11;101220.91;;;12.68;100.00
73651;BME280;61944;52.538;6.108;2022-10-16T07:49:36;101221.03;;;12.78;100.00
73651;BME280;61944;52.538;6.108;2022-10-16T07:52:02;101227.97;;;12.92;100.00
73651;BME280;61944;52.538;6.108;2022-10-16T07:54:27;101231.09;;;13.69;100.00
73651;BME280;61944;52.538;6.108;2022-10-16T07:56:52;101238.25;;;14.18;100.00
73651;BME280;61944;52.538;6.108;2022-10-16T07:59:18;101248.13;;;13.35;100.00
73651;BME280;61944;52.538;6.108;2022-10-16T08:01:43;101258.94;;;13.81;100.00
73651;BME280;61944;52.538;6.108;2022-10-16T08:04:09;101261.56;;;14.18;100.00
73651;BME280;61944;52.538;6.108;2022-10-16T08:06:36;101264.75;;;14.13;100.00
73651;BME280;61944;52.538;6.108;2022-10-16T08:09:03;101276.19;;;13.31;100.00
73651;BME280;61944;52.538;6.108;2022-10-16T08:11:28;101272.78;;;13.15;100.00
73651;BME280;61944;52.538;6.108;2022-10-16T08:13:53;101274.72;;;13.07;100.00
73651;BME280;61944;52.538;6.108;2022-10-16T08:16:19;101281.16;;;13.08;100.00
73651;BME280;61944;52.538;6.108;2022-10-16T08:18:44;101274.31;;;13.05;100.00
73651;BME280;61944;52.538;6.108;2022-10-16T08:21:16;101275.47;;;13.04;100.00
73651;BME280;61944;52.538;6.108;2022-10-16T08:23:42;101287.16;;;13.06;100.00
73651;BME280;61944;52.538;6.108;2022-10-16T08:26:09;101295.16;;;13.04;100.00
73651;BME280;61944;52.538;6.108;2022-10-16T08:28:35;101291.16;;;13.05;100.00
73651;BME280;61944;52.538;6.108;2022-10-16T08:31:08;101294.34;;;13.04;100.00
73651;BME280;61944;52.538;6.108;2022-10-16T08:33:33;101295.16;;;13.04;100.00
73651;BME280;61944;52.538;6.108;2022-10-16T08:36:00;101299.19;;;13.07;100.00
73651;BME280;61944;52.538;6.108;2022-10-16T08:38:26;101313.72;;;13.12;100.00
73651;BME280;61944;52.538;6.108;2022-10-16T08:40:52;101311.69;;;13.13;100.00
73651;BME280;61944;52.538;6.108;2022-10-16T08:48:49;101320.25;;;13.23;100.00
73651;BME280;61944;52.538;6.108;2022-10-16T08:51:22;101320.75;;;13.29;100.00
73651;BME280;61944;52.538;6.108;2022-10-16T08:53:54;101324.38;;;13.30;100.00
73651;BME280;61944;52.538;6.108;2022-10-16T08:56:21;101330.09;;;13.40;100.00
73651;BME280;61944;52.538;6.108;2022-10-16T08:58:47;101338.88;;;13.35;100.00
73651;BME280;61944;52.538;6.108;2022-10-16T09:01:15;101342.16;;;13.41;100.00
73651;BME280;61944;52.538;6.108;2022-10-16T09:06:47;101351.97;;;13.58;100.00
73651;BME280;61944;52.538;6.108;2022-10-16T09:11:54;101352.84;;;13.66;100.00
73651;BME280;61944;52.538;6.108;2022-10-16T09:19:47;101372.31;;;13.85;100.00
73651;BME280;61944;52.538;6.108;2022-10-16T09:22:17;101369.94;;;13.87;99.63
73651;BME280;61944;52.538;6.108;2022-10-16T09:24:45;101381.94;;;13.84;99.39
73651;BME280;61944;52.538;6.108;2022-10-16T09:27:12;101380.41;;;13.90;99.22
73651;BME280;61944;52.538;6.108;2022-10-16T09:29:38;101386.50;;;13.99;99.28
73651;BME280;61944;52.538;6.108;2022-10-16T09:32:16;101390.09;;;13.96;98.52
73651;BME280;61944;52.538;6.108;2022-10-16T09:34:49;101384.50;;;14.03;97.67
73651;BME280;61944;52.538;6.108;2022-10-16T09:37:18;101384.16;;;14.09;97.95
73651;BME280;61944;52.538;6.108;2022-10-16T09:39:49;101397.47;;;14.12;97.51
73651;BME280;61944;52.538;6.108;2022-10-16T09:42:30;101404.56;;;13.95;97.14
73651;BME280;61944;52.538;6.108;2022-10-16T09:44:56;101407.16;;;14.18;95.45
73651;BME280;61944;52.538;6.108;2022-10-16T09:47:29;101400.78;;;14.24;93.99
73651;BME280;61944;52.538;6.108;2022-10-16T09:49:59;101407.16;;;14.18;94.21
73651;BME280;61944;52.538;6.108;2022-10-16T09:52:28;101415.41;;;14.44;93.08
73651;BME280;61944;52.538;6.108;2022-10-16T09:54:55;101413.06;;;14.54;92.62
73651;BME280;61944;52.538;6.108;2022-10-16T09:57:21;101412.56;;;14.41;92.93
73651;BME280;61944;52.538;6.108;2022-10-16T09:59:48;101419.66;;;14.72;92.80
73651;BME280;61944;52.538;6.108;2022-10-16T10:02:16;101409.22;;;14.80;90.08
73651;BME280;61944;52.538;6.108;2022-10-16T10:04:48;101410.75;;;14.67;90.91
73651;BME280;61944;52.538;6.108;2022-10-16T10:07:22;101409.94;;;14.66;90.69
73651;BME280;61944;52.538;6.108;2022-10-16T10:09:49;101410.00;;;14.77;91.03
73651;BME280;61944;52.538;6.108;2022-10-16T10:12:21;101418.81;;;14.68;90.19
73651;BME280;61944;52.538;6.108;2022-10-16T10:14:49;101438.09;;;14.59;91.39
73651;BME280;61944;52.538;6.108;2022-10-16T10:17:20;101423.53;;;14.53;91.51
73651;BME280;61944;52.538;6.108;2022-10-16T10:19:53;101430.03;;;14.57;90.73
73651;BME280;61944;52.538;6.108;2022-10-16T10:30:17;101451.41;;;14.69;91.59
73651;BME280;61944;52.538;6.108;2022-10-16T10:36:02;101443.72;;;14.59;89.17
73651;BME280;61944;52.538;6.108;2022-10-16T10:39:15;101458.84;;;14.43;90.25
73651;BME280;61944;52.538;6.108;2022-10-16T10:46:43;101469.56;;;14.75;87.51
73651;BME280;61944;52.538;6.108;2022-10-16T10:52:19;101480.09;;;14.86;87.52
73651;BME280;61944;52.538;6.108;2022-10-16T10:55:20;101472.88;;;14.84;87.51
73651;BME280;61944;52.538;6.108;2022-10-16T11:01:12;101477.75;;;14.95;85.38
73651;BME280;61944;52.538;6.108;2022-10-16T11:06:58;101480.16;;;14.93;86.26
73651;BME280;61944;52.538;6.108;2022-10-16T11:09:31;101489.97;;;15.24;83.78
73651;BME280;61944;52.538;6.108;2022-10-16T11:12:02;101477.06;;;15.16;85.65
73651;BME280;61944;52.538;6.108;2022-10-16T11:14:31;101491.63;;;15.29;83.88
73651;BME280;61944;52.538;6.108;2022-10-16T11:17:08;101483.59;;;15.31;82.98
73651;BME280;61944;52.538;6.108;2022-10-16T11:19:46;101486.31;;;15.13;83.03
73651;BME280;61944;52.538;6.108;2022-10-16T11:22:24;101500.47;;;15.23;82.88
73651;BME280;61944;52.538;6.108;2022-10-16T11:24:58;101498.78;;;15.08;81.83
73651;BME280;61944;52.538;6.108;2022-10-16T11:27:41;101495.50;;;14.99;81.41
73651;BME280;61944;52.538;6.108;2022-10-16T11:30:16;101497.03;;;14.86;81.46
73651;BME280;61944;52.538;6.108;2022-10-16T11:35:47;101500.72;;;15.00;81.80
73651;BME280;61944;52.538;6.108;2022-10-16T11:38:28;101504.34;;;15.01;81.82
73651;BME280;61944;52.538;6.108;2022-10-16T11:40:58;101500.34;;;15.02;81.51
73651;BME280;61944;52.538;6.108;2022-10-16T11:43:34;101512.56;;;15.28;82.33
73651;BME280;61944;52.538;6.108;2022-10-16T11:46:10;101510.97;;;15.27;81.06
73651;BME280;61944;52.538;6.108;2022-10-16T11:51:39;101513.38;;;15.24;79.62
73651;BME280;61944;52.538;6.108;2022-10-16T11:54:24;101516.25;;;15.39;85.80
73651;BME280;61944;52.538;6.108;2022-10-16T11:56:56;101520.25;;;15.31;78.89
73651;BME280;61944;52.538;6.108;2022-10-16T11:59:28;101523.53;;;15.47;77.64
73651;BME280;61944;52.538;6.108;2022-10-16T12:04:47;101526.34;;;15.40;77.25
73651;BME280;61944;52.538;6.108;2022-10-16T12:07:19;101530.78;;;15.44;81.16
73651;BME280;61944;52.538;6.108;2022-10-16T12:09:47;101534.81;;;15.47;78.43
73651;BME280;61944;52.538;6.108;2022-10-16T12:12:37;101530.34;;;15.39;80.89
73651;BME280;61944;52.538;6.108;2022-10-16T12:15:27;101542.38;;;15.25;81.15
73651;BME280;61944;52.538;6.108;2022-10-16T12:17:54;101543.25;;;15.40;80.49
73651;BME280;61944;52.538;6.108;2022-10-16T12:20:24;101539.16;;;15.27;80.23
73651;BME280;61944;52.538;6.108;2022-10-16T12:22:57;101540.88;;;15.49;79.09
73651;BME280;61944;52.538;6.108;2022-10-16T12:25:34;101546.09;;;15.43;76.27
73651;BME280;61944;52.538;6.108;2022-10-16T12:30:37;101542.56;;;15.64;74.02
73651;BME280;61944;52.538;6.108;2022-10-16T12:33:05;101547.41;;;15.60;75.74
73651;BME280;61944;52.538;6.108;2022-10-16T12:35:34;101545.75;;;15.52;72.59
73651;BME280;61944;52.538;6.108;2022-10-16T12:38:15;101545.06;;;15.77;74.84
73651;BME280;61944;52.538;6.108;2022-10-16T12:40:43;101545.72;;;15.49;76.69
73651;BME280;61944;52.538;6.108;2022-10-16T12:43:35;101557.06;;;15.59;76.70
73651;BME280;61944;52.538;6.108;2022-10-16T12:46:05;101547.53;;;15.93;74.25
73651;BME280;61944;52.538;6.108;2022-10-16T12:48:31;101560.34;;;15.69;77.80
73651;BME280;61944;52.538;6.108;2022-10-16T12:50:56;101565.16;;;15.64;78.26
73651;BME280;61944;52.538;6.108;2022-10-16T12:53:24;101556.63;;;15.57;78.88
73651;BME280;61944;52.538;6.108;2022-10-16T12:58:33;101569.16;;;15.63;81.98
73651;BME280;61944;52.538;6.108;2022-10-16T13:01:15;101574.09;;;15.74;79.52
73651;BME280;61944;52.538;6.108;2022-10-16T13:04:10;101566.72;;;15.62;77.52
73651;BME280;61944;52.538;6.108;2022-10-16T13:06:47;101573.31;;;15.84;74.59
73651;BME280;61944;52.538;6.108;2022-10-16T13:09:35;101570.00;;;15.68;77.13
73651;BME280;61944;52.538;6.108;2022-10-16T13:17:36;101568.47;;;15.77;74.40
73651;BME280;61944;52.538;6.108;2022-10-16T13:20:18;101576.50;;;15.79;74.75
73651;BME280;61944;52.538;6.108;2022-10-16T13:28:12;101584.22;;;15.89;73.53
73651;BME280;61944;52.538;6.108;2022-10-16T13:30:43;101577.28;;;15.72;75.61
73651;BME280;61944;52.538;6.108;2022-10-16T13:35:35;101582.56;;;15.81;74.70
73651;BME280;61944;52.538;6.108;2022-10-16T13:38:16;101572.47;;;15.76;75.30
73651;BME280;61944;52.538;6.108;2022-10-16T13:40:53;101582.56;;;15.81;73.24
73651;BME280;61944;52.538;6.108;2022-10-16T13:43:22;101589.06;;;15.96;71.71
73651;BME280;61944;52.538;6.108;2022-10-16T13:45:56;101577.41;;;15.97;72.38
73651;BME280;61944;52.538;6.108;2022-10-16T13:48:22;101586.69;;;15.94;73.63
73651;BME280;61944;52.538;6.108;2022-10-16T13:51:16;101590.75;;;16.11;72.47
73651;BME280;61944;52.538;6.108;2022-10-16T13:53:43;101590.28;;;15.91;71.63
73651;BME280;61944;52.538;6.108;2022-10-16T13:56:17;101594.72;;;15.96;72.35
73651;BME280;61944;52.538;6.108;2022-10-16T13:58:43;101585.41;;;15.77;76.84
73651;BME280;61944;52.538;6.108;2022-10-16T14:03:45;101599.13;;;15.86;73.41
73651;BME280;61944;52.538;6.108;2022-10-16T14:06:14;101606.78;;;15.82;73.69
73651;BME280;61944;52.538;6.108;2022-10-16T14:09:01;101607.97;;;15.77;74.99
73651;BME280;61944;52.538;6.108;2022-10-16T14:11:27;101608.44;;;15.90;73.50
73651;BME280;61944;52.538;6.108;2022-10-16T14:13:53;101622.97;;;15.92;70.17
73651;BME280;61944;52.538;6.108;2022-10-16T14:16:30;101618.91;;;15.86;70.49
73651;BME280;61944;52.538;6.108;2022-10-16T14:19:02;101616.91;;;15.90;70.80
73651;BME280;61944;52.538;6.108;2022-10-16T14:21:29;101628.16;;;15.83;74.21
73651;BME280;61944;52.538;6.108;2022-10-16T14:23:55;101628.59;;;15.89;71.05
73651;BME280;61944;52.538;6.108;2022-10-16T14:26:23;101635.50;;;16.02;69.70
73651;BME280;61944;52.538;6.108;2022-10-16T14:29:02;101635.44;;;15.84;74.18
73651;BME280;61944;52.538;6.108;2022-10-16T14:31:32;101629.34;;;15.78;71.11
73651;BME280;61944;52.538;6.108;2022-10-16T14:33:58;101639.41;;;15.76;72.83
73651;BME280;61944;52.538;6.108;2022-10-16T14:36:26;101630.22;;;15.90;71.12
73651;BME280;61944;52.538;6.108;2022-10-16T14:39:04;101629.28;;;15.71;72.54
73651;BME280;61944;52.538;6.108;2022-10-16T14:41:41;101623.69;;;15.75;71.58
73651;BME280;61944;52.538;6.108;2022-10-16T14:44:12;101618.44;;;15.77;75.19
73651;BME280;61944;52.538;6.108;2022-10-16T14:46:39;101617.63;;;15.73;71.74
73651;BME280;61944;52.538;6.108;2022-10-16T14:51:34;101619.19;;;15.67;75.07
73651;BME280;61944;52.538;6.108;2022-10-16T14:54:00;101618.34;;;15.59;73.39
73651;BME280;61944;52.538;6.108;2022-10-16T14:56:34;101626.41;;;15.60;75.20
73651;BME280;61944;52.538;6.108;2022-10-16T14:59:11;101624.81;;;15.63;73.59
73651;BME280;61944;52.538;6.108;2022-10-16T15:01:38;101628.00;;;15.54;74.39
73651;BME280;61944;52.538;6.108;2022-10-16T15:04:03;101638.38;;;15.43;76.53
73651;BME280;61944;52.538;6.108;2022-10-16T15:06:29;101635.63;;;15.50;74.37
73651;BME280;61944;52.538;6.108;2022-10-16T15:08:54;101636.00;;;15.49;76.26
73651;BME280;61944;52.538;6.108;2022-10-16T15:11:19;101644.84;;;15.47;77.37
73651;BME280;61944;52.538;6.108;2022-10-16T15:13:45;101644.81;;;15.40;79.88
73651;BME280;61944;52.538;6.108;2022-10-16T15:16:13;101648.88;;;15.46;81.64
73651;BME280;61944;52.538;6.108;2022-10-16T15:18:38;101651.28;;;15.44;83.25
73651;BME280;61944;52.538;6.108;2022-10-16T15:21:04;101649.59;;;15.29;84.32
73651;BME280;61944;52.538;6.108;2022-10-16T15:23:29;101645.94;;;15.24;83.51
73651;BME280;61944;52.538;6.108;2022-10-16T15:25:56;101646.69;;;15.21;86.91
73651;BME280;61944;52.538;6.108;2022-10-16T15:28:23;101652.72;;;15.16;84.11
73651;BME280;61944;52.538;6.108;2022-10-16T15:30:50;101649.88;;;15.16;85.04
73651;BME280;61944;52.538;6.108;2022-10-16T15:33:18;101647.00;;;15.09;86.17
73651;BME280;61944;52.538;6.108;2022-10-16T15:35:48;101643.00;;;15.10;87.72
73651;BME280;61944;52.538;6.108;2022-10-16T15:38:14;101649.00;;;15.09;86.88
73651;BME280;61944;52.538;6.108;2022-10-16T15:40:40;101653.84;;;15.08;87.76
73651;BME280;61944;52.538;6.108;2022-10-16T15:43:06;101648.56;;;15.03;88.30
73651;BME280;61944;52.538;6.108;2022-10-16T15:45:32;101651.75;;;14.98;89.54
73651;BME280;61944;52.538;6.108;2022-10-16T15:47:57;101647.69;;;14.95;89.32
73651;BME280;61944;52.538;6.108;2022-10-16T15:50:22;101649.28;;;14.93;89.64
73651;BME280;61944;52.538;6.108;2022-10-16T15:52:49;101650.84;;;14.87;90.11
73651;BME280;61944;52.538;6.108;2022-10-16T15:55:15;101648.44;;;14.89;91.35
73651;BME280;61944;52.538;6.108;2022-10-16T15:57:41;101646.41;;;14.86;91.57
73651;BME280;61944;52.538;6.108;2022-10-16T16:00:11;101642.72;;;14.81;91.65
73651;BME280;61944;52.538;6.108;2022-10-16T16:02:38;101643.94;;;14.80;92.25
73651;BME280;61944;52.538;6.108;2022-10-16T16:05:04;101652.72;;;14.72;91.93
73651;BME280;61944;52.538;6.108;2022-10-16T16:07:35;101648.22;;;14.67;92.41
73651;BME280;61944;52.538;6.108;2022-10-16T16:10:01;101648.69;;;14.73;93.18
73651;BME280;61944;52.538;6.108;2022-10-16T16:12:27;101649.88;;;14.68;92.61
73651;BME280;61944;52.538;6.108;2022-10-16T16:14:52;101651.09;;;14.71;93.37
73651;BME280;61944;52.538;6.108;2022-10-16T16:17:18;101646.66;;;14.70;93.31
73651;BME280;61944;52.538;6.108;2022-10-16T16:19:43;101661.97;;;14.72;94.15
73651;BME280;61944;52.538;6.108;2022-10-16T16:22:09;101662.38;;;14.71;94.30
73651;BME280;61944;52.538;6.108;2022-10-16T16:24:34;101656.69;;;14.67;94.22
73651;BME280;61944;52.538;6.108;2022-10-16T16:26:59;101661.09;;;14.64;94.89
73651;BME280;61944;52.538;6.108;2022-10-16T16:29:25;101671.13;;;14.62;95.99
73651;BME280;61944;52.538;6.108;2022-10-16T16:31:50;101673.09;;;14.58;94.81
73651;BME280;61944;52.538;6.108;2022-10-16T16:34:22;101676.69;;;14.55;95.74
73651;BME280;61944;52.538;6.108;2022-10-16T16:36:48;101677.44;;;14.52;96.70
73651;BME280;61944;52.538;6.108;2022-10-16T16:39:13;101670.19;;;14.51;95.12
73651;BME280;61944;52.538;6.108;2022-10-16T16:41:38;101681.03;;;14.49;95.33
73651;BME280;61944;52.538;6.108;2022-10-16T16:44:06;101685.34;;;14.39;95.91
73651;BME280;61944;52.538;6.108;2022-10-16T16:46:33;101686.06;;;14.32;96.88
73651;BME280;61944;52.538;6.108;2022-10-16T16:48:59;101697.53;;;14.16;97.94
73651;BME280;61944;52.538;6.108;2022-10-16T16:51:25;101695.63;;;14.24;97.67
73651;BME280;61944;52.538;6.108;2022-10-16T16:53:51;101689.63;;;14.29;96.61
73651;BME280;61944;52.538;6.108;2022-10-16T16:56:18;101678.38;;;14.29;96.72
73651;BME280;61944;52.538;6.108;2022-10-16T16:58:48;101690.41;;;14.26;96.80
73651;BME280;61944;52.538;6.108;2022-10-16T17:01:13;101678.97;;;14.12;97.60
73651;BME280;61944;52.538;6.108;2022-10-16T17:03:42;101706.38;;;14.15;97.37
73651;BME280;61944;52.538;6.108;2022-10-16T17:06:12;101703.13;;;14.13;97.43
73651;BME280;61944;52.538;6.108;2022-10-16T17:08:38;101696.66;;;14.09;97.17
73651;BME280;61944;52.538;6.108;2022-10-16T17:11:04;101695.44;;;14.10;97.56
73651;BME280;61944;52.538;6.108;2022-10-16T17:13:32;101705.03;;;14.05;97.48
73651;BME280;61944;52.538;6.108;2022-10-16T17:16:03;101714.56;;;13.97;97.97
73651;BME280;61944;52.538;6.108;2022-10-16T17:18:29;101726.19;;;13.95;98.08
73651;BME280;61944;52.538;6.108;2022-10-16T17:20:54;101731.75;;;13.88;98.02
73651;BME280;61944;52.538;6.108;2022-10-16T17:23:19;101740.56;;;13.87;98.02
73651;BME280;61944;52.538;6.108;2022-10-16T17:25:45;101738.16;;;13.85;98.38
73651;BME280;61944;52.538;6.108;2022-10-16T17:28:12;101734.91;;;13.83;98.11
73651;BME280;61944;52.538;6.108;2022-10-16T17:30:41;101738.81;;;13.78;98.47
73651;BME280;61944;52.538;6.108;2022-10-16T17:33:07;101729.16;;;13.76;98.52
73651;BME280;61944;52.538;6.108;2022-10-16T17:35:44;101732.31;;;13.74;98.46
73651;BME280;61944;52.538;6.108;2022-10-16T17:38:10;101736.72;;;13.72;98.82
73651;BME280;61944;52.538;6.108;2022-10-16T17:40:37;101740.31;;;13.69;98.61
73651;BME280;61944;52.538;6.108;2022-10-16T17:43:03;101744.28;;;13.68;98.82
73651;BME280;61944;52.538;6.108;2022-10-16T17:45:28;101739.06;;;13.66;99.05
73651;BME280;61944;52.538;6.108;2022-10-16T17:47:54;101734.50;;;13.58;99.17
73651;BME280;61944;52.538;6.108;2022-10-16T17:50:19;101726.50;;;13.60;98.60
73651;BME280;61944;52.538;6.108;2022-10-16T17:52:45;101732.50;;;13.58;99.10
73651;BME280;61944;52.538;6.108;2022-10-16T17:55:10;101735.31;;;13.58;99.30
73651;BME280;61944;52.538;6.108;2022-10-16T17:57:36;101739.31;;;13.57;99.41
73651;BME280;61944;52.538;6.108;2022-10-16T18:00:03;101736.91;;;13.56;99.28
73651;BME280;61944;52.538;6.108;2022-10-16T18:02:29;101741.69;;;13.55;99.45
73651;BME280;61944;52.538;6.108;2022-10-16T18:04:54;101747.31;;;13.55;99.91
73651;BME280;61944;52.538;6.108;2022-10-16T18:07:20;101752.94;;;13.55;99.49
73651;BME280;61944;52.538;6.108;2022-10-16T18:09:46;101764.09;;;13.48;99.68
73651;BME280;61944;52.538;6.108;2022-10-16T18:12:12;101773.75;;;13.51;99.39
73651;BME280;61944;52.538;6.108;2022-10-16T18:14:37;101744.38;;;13.48;99.60
73651;BME280;61944;52.538;6.108;2022-10-16T18:17:03;101747.22;;;13.48;99.29
73651;BME280;61944;52.538;6.108;2022-10-16T18:19:28;101731.91;;;13.46;99.29
73651;BME280;61944;52.538;6.108;2022-10-16T18:21:53;101741.47;;;13.41;99.78
73651;BME280;61944;52.538;6.108;2022-10-16T18:24:23;101750.28;;;13.39;100.00
73651;BME280;61944;52.538;6.108;2022-10-16T18:26:51;101749.47;;;13.39;99.71
73651;BME280;61944;52.538;6.108;2022-10-16T18:29:20;101754.69;;;13.40;99.70
73651;BME280;61944;52.538;6.108;2022-10-16T18:31:45;101755.91;;;13.39;99.79
73651;BME280;61944;52.538;6.108;2022-10-16T18:34:11;101751.84;;;13.37;100.00
73651;BME280;61944;52.538;6.108;2022-10-16T18:36:36;101754.25;;;13.38;100.00
73651;BME280;61944;52.538;6.108;2022-10-16T18:39:06;101759.00;;;13.34;100.00
73651;BME280;61944;52.538;6.108;2022-10-16T18:41:38;101757.41;;;13.33;99.84
73651;BME280;61944;52.538;6.108;2022-10-16T18:44:04;101750.97;;;13.33;100.00
73651;BME280;61944;52.538;6.108;2022-10-16T18:46:30;101754.97;;;13.32;99.72
73651;BME280;61944;52.538;6.108;2022-10-16T18:48:56;101764.63;;;13.34;100.00
73651;BME280;61944;52.538;6.108;2022-10-16T18:51:25;101763.31;;;13.51;100.00
73651;BME280;61944;52.538;6.108;2022-10-16T18:53:53;101769.53;;;13.37;100.00
73651;BME280;61944;52.538;6.108;2022-10-16T18:56:20;101758.56;;;13.32;100.00
73651;BME280;61944;52.538;6.108;2022-10-16T18:58:46;101758.97;;;13.31;100.00
73651;BME280;61944;52.538;6.108;2022-10-16T19:01:18;101758.53;;;13.29;100.00
73651;BME280;61944;52.538;6.108;2022-10-16T19:03:48;101771.03;;;13.31;100.00
73651;BME280;61944;52.538;6.108;2022-10-16T19:06:15;101768.94;;;13.28;100.00
73651;BME280;61944;52.538;6.108;2022-10-16T19:08:40;101775.41;;;13.29;100.00
73651;BME280;61944;52.538;6.108;2022-10-16T19:11:07;101786.66;;;13.29;100.00